createdAt,value
2019-03-19T00:00:39.288Z,3.00
2019-03-19T00:03:08.894Z,3.10
2019-03-19T00:05:38.751Z,3.27
2019-03-19T00:08:08.353Z,2.67
2019-03-19T00:10:38.056Z,3.10
2019-03-19T00:13:07.798Z,3.47
2019-03-19T00:15:37.495Z,3.63
2019-03-19T00:18:07.189Z,3.00
2019-03-19T00:20:36.883Z,3.17
2019-03-19T00:23:06.640Z,3.07
2019-03-19T00:25:36.319Z,3.40
2019-03-19T00:28:06.085Z,3.13
2019-03-19T00:30:35.677Z,3.33
2019-03-19T00:33:05.558Z,3.17
2019-03-19T00:35:35.525Z,3.17
2019-03-19T00:38:05.371Z,2.73
2019-03-19T00:40:35.016Z,3.50
2019-03-19T00:43:04.823Z,4.37
2019-03-19T00:45:34.450Z,3.37
2019-03-19T00:48:04.246Z,4.07
2019-03-19T00:50:33.805Z,3.97
2019-03-19T00:53:03.782Z,3.30
2019-03-19T00:55:40.731Z,3.40
2019-03-19T00:58:04.661Z,3.87
2019-03-19T01:00:34.202Z,3.67
2019-03-19T01:03:03.886Z,3.13
2019-03-19T01:05:33.436Z,3.50
2019-03-19T01:08:03.251Z,3.10
2019-03-19T01:10:33.031Z,3.70
2019-03-19T01:13:02.773Z,3.93
2019-03-19T01:15:32.470Z,3.33
2019-03-19T01:18:02.115Z,4.07
2019-03-19T01:20:31.721Z,3.33
2019-03-19T01:23:01.501Z,3.63
2019-03-19T01:25:31.215Z,4.07
2019-03-19T01:28:00.988Z,4.80
2019-03-19T01:30:30.725Z,3.77
2019-03-19T01:33:00.382Z,3.93
2019-03-19T01:35:30.181Z,4.67
2019-03-19T01:37:59.749Z,4.03
2019-03-19T01:40:29.581Z,3.60
2019-03-19T01:42:59.160Z,4.27
2019-03-19T01:45:28.969Z,4.30
2019-03-19T01:47:58.547Z,4.30
2019-03-19T01:50:28.154Z,4.33
2019-03-19T01:52:57.950Z,4.17
2019-03-19T01:55:27.800Z,4.30
2019-03-19T01:57:57.371Z,4.80
2019-03-19T02:00:27.087Z,5.20
2019-03-19T02:02:56.799Z,5.10
2019-03-19T02:05:26.546Z,3.97
2019-03-19T02:07:56.074Z,4.60
2019-03-19T02:10:25.570Z,4.10
2019-03-19T02:12:55.227Z,4.07
2019-03-19T02:15:24.965Z,5.20
2019-03-19T02:17:54.671Z,4.57
2019-03-19T02:20:24.327Z,5.23
2019-03-19T02:22:53.812Z,4.90
2019-03-19T02:25:23.417Z,4.97
2019-03-19T02:27:53.048Z,5.13
2019-03-19T02:30:22.759Z,5.30
2019-03-19T02:32:52.456Z,5.17
2019-03-19T02:35:22.233Z,4.90
2019-03-19T02:37:51.741Z,4.70
2019-03-19T02:40:21.530Z,5.50
2019-03-19T02:42:51.260Z,5.47
2019-03-19T02:45:21.166Z,4.70
2019-03-19T02:47:50.744Z,5.80
2019-03-19T02:50:20.432Z,5.53
2019-03-19T02:52:50.163Z,5.40
2019-03-19T02:55:19.835Z,4.97
2019-03-19T02:57:49.442Z,5.03
2019-03-19T03:00:19.772Z,6.20
2019-03-19T03:02:49.655Z,5.97
2019-03-19T03:05:23.154Z,6.17
2019-03-19T03:07:52.797Z,6.13
2019-03-19T03:10:22.341Z,6.97
2019-03-19T03:12:52.274Z,6.60
2019-03-19T03:15:21.816Z,6.23
2019-03-19T03:17:51.636Z,6.60
2019-03-19T03:20:21.217Z,5.77
2019-03-19T03:22:50.767Z,6.50
2019-03-19T03:25:20.412Z,6.20
2019-03-19T03:27:49.964Z,6.00
2019-03-19T03:30:23.872Z,6.30
2019-03-19T03:32:53.790Z,5.93
2019-03-19T03:35:23.347Z,7.03
2019-03-19T03:37:53.371Z,6.57
2019-03-19T03:40:22.915Z,7.10
2019-03-19T03:42:52.556Z,6.87
2019-03-19T03:45:22.289Z,7.03
2019-03-19T03:47:51.996Z,6.33
2019-03-19T03:50:21.700Z,7.00
2019-03-19T03:52:51.428Z,6.57
2019-03-19T03:55:21.656Z,6.97
2019-03-19T03:57:51.286Z,7.27
2019-03-19T04:00:25.519Z,6.77
2019-03-19T04:02:55.155Z,7.40
2019-03-19T04:05:24.791Z,7.23
2019-03-19T04:07:54.365Z,6.80
2019-03-19T04:10:24.199Z,6.90
2019-03-19T04:12:54.039Z,7.37
2019-03-19T04:15:23.684Z,6.77
2019-03-19T04:17:53.374Z,6.37
2019-03-19T04:20:23.208Z,7.17
2019-03-19T04:22:52.893Z,5.97
2019-03-19T04:25:22.654Z,6.07
2019-03-19T04:27:52.328Z,6.43
2019-03-19T04:30:22.411Z,7.53
2019-03-19T04:32:52.047Z,6.30
2019-03-19T04:35:22.057Z,6.63
2019-03-19T04:37:51.583Z,7.70
2019-03-19T04:40:21.293Z,7.27
2019-03-19T04:42:50.858Z,7.50
2019-03-19T04:45:20.691Z,8.20
2019-03-19T04:47:50.281Z,8.40
2019-03-19T04:50:20.188Z,7.93
2019-03-19T04:52:49.770Z,8.37
2019-03-19T04:55:19.246Z,8.80
2019-03-19T04:57:49.060Z,8.57
2019-03-19T05:00:19.925Z,8.70
2019-03-19T05:02:49.592Z,8.63
2019-03-19T05:05:19.159Z,10.00
2019-03-19T05:07:48.722Z,10.40
2019-03-19T05:10:19.298Z,10.53
2019-03-19T05:12:48.893Z,9.60
2019-03-19T05:15:18.598Z,8.90
2019-03-19T05:17:48.250Z,10.03
2019-03-19T05:20:18.951Z,9.43
2019-03-19T05:22:48.786Z,10.17
2019-03-19T05:25:18.338Z,10.17
2019-03-19T05:27:48.165Z,10.17
2019-03-19T05:30:20.681Z,9.17
2019-03-19T05:32:50.543Z,9.90
2019-03-19T05:35:20.082Z,9.40
2019-03-19T05:37:49.871Z,9.53
2019-03-19T05:40:19.577Z,9.70
2019-03-19T05:42:49.263Z,10.10
2019-03-19T05:45:18.963Z,9.27
2019-03-19T05:47:48.840Z,9.07
2019-03-19T05:50:23.354Z,10.63
2019-03-19T05:52:53.099Z,9.43
2019-03-19T05:55:22.626Z,10.07
2019-03-19T05:57:52.099Z,9.13
2019-03-19T06:00:23.505Z,9.77
2019-03-19T06:02:53.229Z,9.57
2019-03-19T06:05:23.140Z,10.10
2019-03-19T06:07:52.719Z,9.93
2019-03-19T06:10:22.533Z,10.87
2019-03-19T06:12:52.168Z,11.57
2019-03-19T06:15:22.027Z,10.13
2019-03-19T06:17:51.616Z,9.73
2019-03-19T06:20:21.834Z,8.93
2019-03-19T06:22:51.575Z,9.03
2019-03-19T06:25:21.165Z,10.50
2019-03-19T06:28:00.182Z,9.40
2019-03-19T06:30:30.340Z,8.83
2019-03-19T06:33:00.536Z,8.80
2019-03-19T06:35:30.315Z,8.17
2019-03-19T06:38:01.006Z,7.07
2019-03-19T06:40:30.785Z,5.80
2019-03-19T06:43:01.036Z,6.97
2019-03-19T06:45:30.685Z,7.07
2019-03-19T06:48:01.411Z,6.17
2019-03-19T06:50:32.606Z,5.73
2019-03-19T06:53:03.007Z,5.77
2019-03-19T06:55:32.835Z,6.60
2019-03-19T06:58:10.570Z,6.07
2019-03-19T07:00:33.899Z,5.63
2019-03-19T07:03:04.039Z,7.00
2019-03-19T07:05:33.706Z,6.77
2019-03-19T07:08:05.242Z,7.30
2019-03-19T07:10:35.095Z,7.30
2019-03-19T07:13:04.903Z,7.57
2019-03-19T07:15:35.128Z,7.60
2019-03-19T07:18:06.278Z,7.57
2019-03-19T07:20:36.735Z,7.10
2019-03-19T07:23:07.321Z,7.27
2019-03-19T07:25:37.197Z,7.33
2019-03-19T07:28:06.936Z,5.70
2019-03-19T07:30:36.992Z,7.40
2019-03-19T07:33:08.179Z,6.13
2019-03-19T07:35:38.032Z,6.30
2019-03-19T07:38:09.262Z,6.30
2019-03-19T07:40:38.979Z,6.37
2019-03-19T07:43:08.792Z,6.90
2019-03-19T07:45:38.424Z,6.60
2019-03-19T07:48:08.117Z,6.70
2019-03-19T07:50:38.835Z,7.63
2019-03-19T07:53:10.074Z,7.83
2019-03-19T07:55:39.891Z,6.77
2019-03-19T07:58:09.718Z,7.90
2019-03-19T08:00:40.848Z,8.73
2019-03-19T08:03:15.994Z,9.23
2019-03-19T08:05:41.834Z,10.00
2019-03-19T08:08:11.708Z,8.00
2019-03-19T08:10:41.415Z,8.17
2019-03-19T08:13:11.608Z,7.87
2019-03-19T08:15:41.225Z,8.70
2019-03-19T08:18:10.999Z,9.00
2019-03-19T08:20:40.624Z,8.20
2019-03-19T08:23:11.137Z,8.20
2019-03-19T08:25:41.047Z,8.60
2019-03-19T08:28:11.327Z,7.33
2019-03-19T08:30:42.706Z,8.97
2019-03-19T08:33:12.503Z,8.07
2019-03-19T08:35:42.080Z,8.90
2019-03-19T08:38:11.949Z,7.10
2019-03-19T08:40:42.667Z,7.40
2019-03-19T08:43:12.471Z,6.77
2019-03-19T08:45:43.896Z,6.87
2019-03-19T08:48:13.714Z,8.57
2019-03-19T08:50:43.345Z,7.80
2019-03-19T08:53:13.106Z,7.23
2019-03-19T08:55:42.854Z,8.33
2019-03-19T08:58:12.566Z,8.47
2019-03-19T09:00:42.721Z,8.10
2019-03-19T09:03:13.123Z,7.97
2019-03-19T09:05:44.529Z,7.90
2019-03-19T09:08:14.177Z,7.03
2019-03-19T09:10:44.022Z,8.03
2019-03-19T09:13:14.326Z,8.40
2019-03-19T09:15:45.451Z,7.83
2019-03-19T09:18:16.122Z,7.27
2019-03-19T09:20:45.929Z,7.07
2019-03-19T09:23:16.365Z,7.37
2019-03-19T09:25:46.124Z,7.87
2019-03-19T09:28:15.822Z,8.00
2019-03-19T09:30:45.611Z,7.47
2019-03-19T09:33:15.247Z,6.80
2019-03-19T09:35:44.902Z,6.37
2019-03-19T09:38:14.748Z,7.00
2019-03-19T09:40:45.148Z,7.00
2019-03-19T09:43:16.167Z,6.23
2019-03-19T09:45:45.951Z,7.87
2019-03-19T09:48:16.172Z,6.83
2019-03-19T09:50:46.383Z,7.00
2019-03-19T09:53:18.730Z,6.20
2019-03-19T09:55:48.652Z,6.33
2019-03-19T09:58:19.268Z,6.17
2019-03-19T10:00:50.756Z,6.03
2019-03-19T10:03:20.875Z,6.17
2019-03-19T10:05:50.640Z,6.57
2019-03-19T10:08:20.846Z,5.67
2019-03-19T10:10:52.389Z,5.60
2019-03-19T10:13:22.015Z,5.57
2019-03-19T10:15:51.916Z,5.00
2019-03-19T10:18:22.257Z,5.50
2019-03-19T10:20:52.056Z,4.40
2019-03-19T10:23:21.721Z,4.47
2019-03-19T10:25:52.558Z,5.00
2019-03-19T10:28:22.536Z,4.87
2019-03-19T10:30:52.391Z,4.47
2019-03-19T10:33:22.639Z,4.50
2019-03-19T10:36:04.164Z,3.93
2019-03-19T10:38:43.194Z,2.97
2019-03-19T10:41:15.607Z,3.27
2019-03-19T10:43:47.626Z,2.90
2019-03-19T10:46:23.060Z,3.37
2019-03-19T10:48:56.731Z,2.57
2019-03-19T10:51:26.469Z,2.60
2019-03-19T10:53:56.129Z,2.93
2019-03-19T10:56:25.892Z,2.53
2019-03-19T10:59:01.130Z,2.70
2019-03-19T11:01:34.388Z,2.40
2019-03-19T11:04:13.763Z,2.67
2019-03-19T11:06:44.329Z,3.30
2019-03-19T11:09:14.012Z,2.37
2019-03-19T11:11:45.227Z,2.30
2019-03-19T11:14:14.906Z,2.40
2019-03-19T11:16:45.180Z,2.77
2019-03-19T11:19:16.627Z,2.60
2019-03-19T11:21:46.512Z,2.13
2019-03-19T11:24:16.236Z,2.23
2019-03-19T11:26:47.354Z,2.43
2019-03-19T11:29:17.829Z,2.17
2019-03-19T11:31:47.599Z,2.37
2019-03-19T11:34:17.438Z,2.23
2019-03-19T11:36:57.475Z,2.23
2019-03-19T11:39:20.108Z,2.60
2019-03-19T11:41:50.274Z,2.10
2019-03-19T11:44:21.165Z,2.03
2019-03-19T11:46:53.509Z,1.90
2019-03-19T11:49:24.451Z,2.47
2019-03-19T11:51:54.293Z,2.40
2019-03-19T11:54:24.788Z,2.30
2019-03-19T11:56:54.532Z,2.30
2019-03-19T11:59:24.233Z,2.70
2019-03-19T12:01:54.778Z,2.07
2019-03-19T12:04:25.118Z,2.40
2019-03-19T12:06:56.150Z,2.30
2019-03-19T12:09:26.880Z,1.93
2019-03-19T12:11:57.227Z,2.13
2019-03-19T12:14:26.853Z,4.70
2019-03-19T12:16:58.068Z,2.63
2019-03-19T12:19:29.385Z,2.00
2019-03-19T12:21:59.130Z,1.63
2019-03-19T12:24:29.556Z,2.10
2019-03-19T12:26:59.315Z,2.40
2019-03-19T12:29:29.203Z,2.30
2019-03-19T12:31:59.441Z,2.27
2019-03-19T12:34:30.374Z,3.27
2019-03-19T12:37:00.143Z,2.13
2019-03-19T12:39:29.856Z,1.53
2019-03-19T12:41:59.764Z,2.27
2019-03-19T12:44:30.337Z,1.90
2019-03-19T12:47:00.167Z,2.20
2019-03-19T12:49:29.805Z,1.93
2019-03-19T12:52:00.800Z,1.80
2019-03-19T12:54:30.625Z,2.47
2019-03-19T12:57:00.416Z,1.87
2019-03-19T12:59:30.216Z,2.03
2019-03-19T13:02:00.122Z,2.00
2019-03-19T13:04:29.785Z,2.10
2019-03-19T13:06:59.447Z,1.67
2019-03-19T13:09:29.187Z,2.50
2019-03-19T13:11:59.422Z,2.03
2019-03-19T13:14:29.187Z,2.10
2019-03-19T13:17:00.003Z,2.20
2019-03-19T13:19:29.833Z,2.00
2019-03-19T13:21:59.732Z,1.97
2019-03-19T13:24:29.516Z,2.37
2019-03-19T13:26:59.404Z,2.73
2019-03-19T13:29:30.575Z,2.63
2019-03-19T13:32:00.434Z,2.83
2019-03-19T13:34:31.418Z,1.93
2019-03-19T13:37:01.945Z,2.10
2019-03-19T13:39:31.703Z,1.70
2019-03-19T13:42:01.419Z,2.20
2019-03-19T13:44:31.213Z,2.23
2019-03-19T13:47:01.117Z,1.63
2019-03-19T13:49:31.011Z,1.87
2019-03-19T13:52:02.328Z,2.37
2019-03-19T13:54:31.985Z,1.93
2019-03-19T13:57:01.776Z,1.80
2019-03-19T13:59:31.458Z,1.57
2019-03-19T14:02:01.185Z,1.80
2019-03-19T14:04:59.940Z,1.47
2019-03-19T14:07:29.829Z,2.00
2019-03-19T14:09:59.613Z,1.87
2019-03-19T14:12:29.315Z,2.10
2019-03-19T14:14:58.894Z,1.70
2019-03-19T14:17:28.493Z,1.83
2019-03-19T14:19:58.222Z,1.93
2019-03-19T14:22:27.960Z,1.90
2019-03-19T14:24:57.607Z,1.63
2019-03-19T14:27:27.520Z,2.13
2019-03-19T14:29:57.175Z,1.60
2019-03-19T14:32:27.294Z,1.70
2019-03-19T14:34:58.714Z,2.40
2019-03-19T14:37:28.772Z,2.10
2019-03-19T14:39:58.958Z,2.10
2019-03-19T14:42:28.878Z,2.20
2019-03-19T14:44:59.085Z,1.80
2019-03-19T14:47:29.881Z,2.13
2019-03-19T14:49:59.522Z,1.90
2019-03-19T14:52:29.407Z,1.70
2019-03-19T14:54:59.061Z,1.57
2019-03-19T14:57:30.270Z,1.50
2019-03-19T14:59:59.890Z,2.30
2019-03-19T15:02:29.960Z,1.57
2019-03-19T15:04:59.591Z,1.83
2019-03-19T15:07:29.688Z,1.97
2019-03-19T15:10:00.110Z,1.87
2019-03-19T15:12:30.694Z,2.07
2019-03-19T15:15:00.371Z,1.97
2019-03-19T15:17:31.231Z,2.40
2019-03-19T15:20:02.502Z,2.00
2019-03-19T15:22:33.057Z,2.60
2019-03-19T15:25:02.819Z,2.10
2019-03-19T15:27:33.297Z,1.90
2019-03-19T15:30:10.520Z,2.00
2019-03-19T15:32:40.465Z,1.80
2019-03-19T15:35:12.019Z,2.40
2019-03-19T15:37:43.667Z,1.57
2019-03-19T15:40:21.094Z,1.90
2019-03-19T15:42:50.817Z,2.03
2019-03-19T15:45:27.099Z,1.90
2019-03-19T15:47:58.311Z,2.00
2019-03-19T15:50:29.523Z,2.37
2019-03-19T15:52:59.217Z,2.60
2019-03-19T15:55:32.129Z,2.20
2019-03-19T15:58:04.181Z,1.87
2019-03-19T16:00:34.004Z,2.13
2019-03-19T16:03:04.170Z,2.10
2019-03-19T16:05:34.209Z,2.10
2019-03-19T16:08:03.962Z,2.40
2019-03-19T16:10:34.158Z,2.20
2019-03-19T16:13:05.653Z,2.20
2019-03-19T16:15:35.449Z,1.90
2019-03-19T16:18:06.869Z,2.30
2019-03-19T16:20:38.187Z,2.30
2019-03-19T16:23:09.521Z,1.97
2019-03-19T16:25:39.155Z,1.93
2019-03-19T16:28:09.487Z,2.30
2019-03-19T16:30:40.826Z,1.87
2019-03-19T16:33:10.619Z,1.90
2019-03-19T16:35:40.985Z,1.80
2019-03-19T16:38:10.628Z,2.30
2019-03-19T16:40:40.295Z,2.00
2019-03-19T16:43:11.163Z,2.83
2019-03-19T16:45:58.249Z,2.23
2019-03-19T16:48:29.178Z,2.53
2019-03-19T16:50:59.525Z,2.37
2019-03-19T16:53:29.829Z,2.37
2019-03-19T16:56:08.892Z,2.00
2019-03-19T16:58:38.642Z,2.37
2019-03-19T17:01:08.463Z,2.00
2019-03-19T17:03:40.948Z,1.73
2019-03-19T17:06:11.673Z,1.77
2019-03-19T17:08:41.457Z,1.90
2019-03-19T17:11:11.949Z,2.00
2019-03-19T17:13:43.192Z,2.27
2019-03-19T17:16:14.943Z,2.60
2019-03-19T17:18:45.980Z,2.97
2019-03-19T17:21:18.564Z,1.77
2019-03-19T17:23:55.615Z,2.00
2019-03-19T17:26:25.344Z,3.03
2019-03-19T17:28:55.187Z,2.50
2019-03-19T17:31:32.182Z,3.77
2019-03-19T17:34:02.493Z,5.30
2019-03-19T17:36:33.745Z,5.20
2019-03-19T17:39:03.502Z,6.80
2019-03-19T17:41:33.319Z,4.57
2019-03-19T17:44:03.968Z,4.50
2019-03-19T17:46:33.725Z,4.13
2019-03-19T17:49:04.319Z,4.77
2019-03-19T17:51:34.132Z,5.10
2019-03-19T17:54:03.859Z,4.90
2019-03-19T17:56:33.569Z,4.90
2019-03-19T17:59:04.915Z,5.07
2019-03-19T18:01:36.285Z,4.27
2019-03-19T18:04:06.112Z,5.03
2019-03-19T18:06:35.883Z,4.93
2019-03-19T18:09:08.137Z,5.07
2019-03-19T18:11:38.025Z,5.13
2019-03-19T18:14:07.899Z,4.67
2019-03-19T18:16:37.538Z,5.33
2019-03-19T18:19:09.807Z,4.73
2019-03-19T18:21:39.648Z,4.27
2019-03-19T18:24:09.691Z,3.20
2019-03-19T18:26:40.430Z,4.43
2019-03-19T18:29:10.649Z,6.27
2019-03-19T18:31:40.585Z,5.97
2019-03-19T18:34:10.715Z,5.07
2019-03-19T18:36:40.663Z,5.67
2019-03-19T18:39:10.366Z,4.03
2019-03-19T18:41:40.378Z,4.43
2019-03-19T18:44:10.161Z,4.70
2019-03-19T18:46:40.520Z,4.27
2019-03-19T18:49:10.187Z,4.33
2019-03-19T18:51:39.988Z,4.47
2019-03-19T18:54:09.708Z,4.33
2019-03-19T18:56:39.579Z,3.93
2019-03-19T18:59:09.579Z,4.00
2019-03-19T19:01:39.298Z,4.57
2019-03-19T19:04:09.007Z,5.30
2019-03-19T19:06:40.076Z,5.57
2019-03-19T19:09:11.691Z,7.50
2019-03-19T19:11:41.402Z,6.77
2019-03-19T19:14:12.096Z,8.37
2019-03-19T19:16:41.807Z,7.13
2019-03-19T19:19:11.566Z,7.93
2019-03-19T19:21:41.262Z,10.47
2019-03-19T19:24:10.895Z,9.97
2019-03-19T19:26:40.657Z,8.47
2019-03-19T19:29:10.415Z,8.73
2019-03-19T19:31:40.421Z,10.00
2019-03-19T19:34:10.225Z,7.07
2019-03-19T19:36:39.949Z,5.60
2019-03-19T19:39:09.866Z,5.37
2019-03-19T19:41:39.717Z,5.70
2019-03-19T19:44:09.526Z,6.03
2019-03-19T19:46:39.929Z,5.27
2019-03-19T19:49:14.872Z,6.67
2019-03-19T19:51:45.599Z,5.03
2019-03-19T19:54:15.352Z,5.13
2019-03-19T19:57:05.613Z,5.13
2019-03-19T19:59:35.400Z,5.77
2019-03-19T20:02:05.294Z,5.30
2019-03-19T20:04:35.166Z,6.20
2019-03-19T20:07:04.908Z,5.10
2019-03-19T20:09:34.686Z,5.30
2019-03-19T20:12:05.080Z,6.63
2019-03-19T20:14:34.933Z,5.93
2019-03-19T20:17:04.742Z,6.80
2019-03-19T20:19:34.849Z,6.10
2019-03-19T20:22:04.946Z,5.87
2019-03-19T20:24:34.777Z,4.50
2019-03-19T20:27:05.227Z,5.20
2019-03-19T20:29:37.049Z,5.60
2019-03-19T20:32:06.757Z,5.30
2019-03-19T20:34:36.733Z,5.07
2019-03-19T20:37:06.641Z,5.00
2019-03-19T20:39:36.380Z,5.00
2019-03-19T20:42:06.139Z,5.30
2019-03-19T20:44:35.884Z,6.43
2019-03-19T20:47:06.404Z,5.33
2019-03-19T20:49:46.919Z,5.73
2019-03-19T20:52:08.022Z,5.97
2019-03-19T20:54:37.630Z,5.77
2019-03-19T20:57:07.246Z,6.30
2019-03-19T20:59:36.932Z,6.30
2019-03-19T21:02:07.335Z,6.30
2019-03-19T21:04:37.119Z,5.60
2019-03-19T21:07:08.480Z,5.97
2019-03-19T21:09:38.191Z,6.03
2019-03-19T21:12:09.791Z,6.50
2019-03-19T21:14:40.131Z,6.23
2019-03-19T21:17:09.952Z,5.90
2019-03-19T21:19:40.229Z,5.87
2019-03-19T21:22:10.308Z,6.53
2019-03-19T21:24:41.692Z,5.60
2019-03-19T21:27:11.636Z,6.30
2019-03-19T21:29:42.847Z,7.17
2019-03-19T21:32:13.485Z,5.73
2019-03-19T21:34:44.067Z,4.93
2019-03-19T21:37:13.783Z,5.93
2019-03-19T21:39:43.546Z,5.23
2019-03-19T21:42:17.765Z,5.03
2019-03-19T21:44:47.518Z,5.53
2019-03-19T21:47:18.947Z,5.07
2019-03-19T21:49:49.271Z,6.03
2019-03-19T21:52:22.290Z,5.47
2019-03-19T21:54:52.008Z,5.37
2019-03-19T21:57:21.814Z,6.80
2019-03-19T21:59:51.579Z,5.97
2019-03-19T22:02:21.281Z,5.30
2019-03-19T22:04:51.541Z,4.77
2019-03-19T22:07:21.897Z,5.63
2019-03-19T22:09:51.698Z,6.23
2019-03-19T22:12:23.010Z,6.40
2019-03-19T22:14:53.495Z,4.67
2019-03-19T22:17:25.225Z,5.30
2019-03-19T22:19:55.875Z,4.83
2019-03-19T22:22:25.586Z,5.57
2019-03-19T22:24:56.867Z,5.30
2019-03-19T22:27:29.896Z,5.00
2019-03-19T22:29:59.626Z,5.03
2019-03-19T22:32:29.971Z,5.27
2019-03-19T22:34:59.857Z,5.53
2019-03-19T22:37:30.337Z,5.17
2019-03-19T22:40:02.189Z,4.97
2019-03-19T22:42:32.092Z,5.67
2019-03-19T22:45:01.996Z,5.70
2019-03-19T22:47:31.941Z,5.63
2019-03-19T22:50:04.647Z,5.70
2019-03-19T22:52:35.773Z,5.43
2019-03-19T22:55:09.440Z,5.33
2019-03-19T22:57:39.515Z,4.77
2019-03-19T23:00:16.330Z,4.83
2019-03-19T23:02:46.596Z,5.13
2019-03-19T23:05:16.628Z,4.73
2019-03-19T23:07:46.305Z,4.30
2019-03-19T23:10:16.191Z,5.30
2019-03-19T23:12:50.438Z,4.53
2019-03-19T23:15:20.722Z,4.77
2019-03-19T23:17:50.461Z,4.30
2019-03-19T23:20:20.129Z,5.00
2019-03-19T23:22:51.427Z,4.57
2019-03-19T23:25:21.271Z,4.73
2019-03-19T23:27:53.326Z,5.07
2019-03-19T23:30:27.325Z,5.03
2019-03-19T23:32:58.556Z,4.40
2019-03-19T23:35:28.126Z,4.50
2019-03-19T23:37:57.852Z,4.20
2019-03-19T23:40:27.510Z,4.90
2019-03-19T23:42:57.718Z,5.07
2019-03-19T23:45:28.128Z,4.63
2019-03-19T23:47:58.074Z,4.70
2019-03-19T23:50:28.295Z,4.30
2019-03-19T23:52:59.658Z,4.93
2019-03-19T23:55:29.344Z,4.47
2019-03-19T23:57:58.955Z,4.77
